De Soto, KS

2:59 PM CST on November 23, 2014 (GMT -0600)
Cedar Ridge | Change Station
CLOSE
Current Station
Personal Weather Station
Location: De Soto, KS
Elevation: 886 ft
Nearby Weather Stations

Elev 886 ft 38.97 °N, 94.99 °W | Updated 279 days ago

Rain
Rain
61 °F
Feels Like 61 °F
N
16
Wind Variable Wind from West
Gusts 23 mph

Today
High -- | Low -- °F
--% Chance of Precip.
Yesterday
High -- | Low -- °F
Precip. -- in
7:11 AM 5:00 PM
New Moon, 2% visible
Pressure 29.33 in
Visibility 5.0 miles
Clouds Mostly Cloudy 700 ft
Mostly Cloudy 3100 ft
Overcast 5500 ft
Dew Point 45 °F
Humidity 55%
Rainfall 0.00 in
Snow Depth Not available.
UV 0 out of 12
Pollen .10 out of 12
Air Quality Not available.
Flu Activity Not available.
METAR KIXD 232053Z 30006KT 5SM -RA BR BKN007 BKN031 OVC055 13/13 A2934 RMK AO2 RAE00B06 SLP930 P0005 60006 T01330128 56025 $

More Conditions Fewer Conditions

Pressure 29.33 in
Visibility 5.0 miles
Clouds Mostly Cloudy 700 ft
Mostly Cloudy 3100 ft
Overcast 5500 ft
Dew Point 45 °F
Humidity 55%
Rainfall 0.00 in
Snow Depth Not available.
UV 0 out of 12
Pollen .10 out of 12
Air Quality Not available.
Flu Activity Not available.
METAR KIXD 232053Z 30006KT 5SM -RA BR BKN007 BKN031 OVC055 13/13 A2934 RMK AO2 RAE00B06 SLP930 P0005 60006 T01330128 56025 $

More Conditions Fewer Conditions

10-Day Weather Forecast

Almanac

Astronomy

Nov. 23, 2014 Rise Set
Actual Time
Civil Twilight
Nautical Twilight
Astronomical Twilight
Moon
Length of Visible Light
Length of Day
Tomorrow will be .
, % of the Moon is Illuminated

Today's Extremes

State Highs State Lows

Community

WunderPhotos

Upload Photos

1,773,171 photos uploaded!

WunderBlogs® & News

Nearby

Air Quality

  Air Quality AQ Index Pollutant
Not available.

Snow Depth

Station Depth Elevation

Earthquake Activity

City Distance Mag. Time & Date
Minimum magnitude displayed is 2.5.

Coastal Water Temperatures

Place Temperature

Nearby Weather Stations